Time;durP1;ratioP1;P1;durP2;ratioP2;P2;SDS_P1;SDS_P2;PMS_P1;PMS_P2;Temp;Humidity;BMP_temperature;BMP_pressure;BME280_temperature;BME280_humidity;BME280_pressure;Samples;Min_cycle;Max_cycle;Signal;HPM_P1;HPM_P2
2023/07/18 00:01:40;;;;;;;3.70;3.30;;;;;;;27.46;54.80;101554.74;107207;1264;25332;-50
2023/07/18 00:04:07;;;;;;;3.20;2.60;;;;;;;27.45;54.87;101550.57;106958;1259;25351;-50
2023/07/18 00:06:38;;;;;;;5.10;2.90;;;;;;;27.42;54.97;101542.77;107160;1267;25349;-49
2023/07/18 00:09:06;;;;;;;4.70;3.30;;;;;;;27.37;55.09;101537.29;107098;1264;25336;-49
2023/07/18 00:11:33;;;;;;;3.30;3.00;;;;;;;27.35;55.18;101535.45;107065;1267;25350;-50
2023/07/18 00:14:00;;;;;;;2.50;2.30;;;;;;;27.34;55.18;101529.48;107019;1260;25345;-49
2023/07/18 00:16:28;;;;;;;4.20;3.00;;;;;;;27.36;55.11;101526.15;107074;1260;25335;-49
2023/07/18 00:18:55;;;;;;;3.70;2.90;;;;;;;27.36;55.28;101522.96;107180;1262;25325;-50
2023/07/18 00:21:22;;;;;;;3.20;2.90;;;;;;;27.35;55.30;101519.42;107124;1257;23422;-50
2023/07/18 00:23:50;;;;;;;4.60;3.10;;;;;;;27.34;55.32;101519.52;107066;1268;25469;-50
2023/07/18 00:26:17;;;;;;;5.20;3.00;;;;;;;27.33;55.35;101512.64;106935;1262;25360;-50
2023/07/18 00:28:44;;;;;;;3.10;2.80;;;;;;;27.31;55.32;101508.13;107157;1264;25544;-50
2023/07/18 00:31:12;;;;;;;3.30;2.60;;;;;;;27.31;55.39;101503.77;107098;1260;22524;-50
2023/07/18 00:33:39;;;;;;;3.20;2.60;;;;;;;27.29;55.37;101500.84;106853;1271;25431;-50
2023/07/18 00:36:06;;;;;;;3.10;2.40;;;;;;;27.28;55.43;101498.10;106848;1265;25346;-50
2023/07/18 00:38:33;;;;;;;3.30;2.50;;;;;;;27.26;55.42;101492.14;107055;1272;25334;-50
2023/07/18 00:41:01;;;;;;;5.50;2.90;;;;;;;27.25;55.52;101495.13;107128;1264;25381;-50
2023/07/18 00:43:31;;;;;;;3.60;3.00;;;;;;;27.24;55.47;101496.98;107175;1267;25351;-50
2023/07/18 00:46:01;;;;;;;3.00;2.50;;;;;;;27.22;55.51;101496.45;107034;1254;25342;-49
2023/07/18 00:48:34;;;;;;;3.80;3.00;;;;;;;27.16;55.60;101496.14;106860;1263;24211;-50
2023/07/18 00:51:07;;;;;;;5.40;2.70;;;;;;;27.15;55.62;101498.23;106942;1261;22522;-49
2023/07/18 00:53:35;;;;;;;4.50;2.50;;;;;;;27.14;55.58;101495.29;107120;1262;22513;-50
2023/07/18 00:56:02;;;;;;;6.50;3.30;;;;;;;27.12;55.68;101491.90;106950;1265;25475;-51
2023/07/18 00:58:30;;;;;;;4.00;2.70;;;;;;;27.10;55.83;101485.27;106835;1272;25363;-51
2023/07/18 01:01:00;;;;;;;4.10;2.70;;;;;;;27.08;55.87;101481.30;107069;1260;25483;-50
2023/07/18 01:03:29;;;;;;;4.70;2.90;;;;;;;27.07;55.86;101482.48;107068;1264;22588;-50
2023/07/18 01:05:56;;;;;;;3.40;2.70;;;;;;;27.07;55.93;101477.19;107046;1265;25466;-49
2023/07/18 01:08:25;;;;;;;3.60;2.50;;;;;;;27.06;55.94;101478.30;106781;1275;25384;-50
2023/07/18 01:10:52;;;;;;;4.00;3.10;;;;;;;27.05;55.93;101483.52;107087;1267;25363;-51
2023/07/18 01:13:22;;;;;;;4.80;3.20;;;;;;;27.04;55.96;101479.52;107173;1259;25412;-49
2023/07/18 01:15:50;;;;;;;5.10;3.20;;;;;;;27.03;55.98;101476.20;106921;1267;22522;-50
2023/07/18 01:18:17;;;;;;;8.20;3.60;;;;;;;27.01;55.86;101471.18;106993;1256;25335;-51
2023/07/18 01:20:46;;;;;;;5.10;3.70;;;;;;;27.01;55.81;101470.89;106946;1263;25412;-51
2023/07/18 01:23:13;;;;;;;4.90;3.20;;;;;;;27.00;55.89;101470.79;106949;1264;25336;-51
2023/07/18 01:25:42;;;;;;;4.20;2.90;;;;;;;26.98;56.12;101465.23;106901;1259;24243;-52
2023/07/18 01:28:10;;;;;;;5.60;2.80;;;;;;;26.96;56.34;101465.17;106861;1262;25265;-50
2023/07/18 01:30:38;;;;;;;3.30;2.90;;;;;;;26.95;56.66;101467.10;106882;1262;24313;-50
2023/07/18 01:33:05;;;;;;;5.30;3.20;;;;;;;26.93;57.02;101461.35;106995;1263;25332;-49
2023/07/18 01:35:34;;;;;;;4.70;3.20;;;;;;;26.91;57.29;101457.45;107252;1262;25394;-50
2023/07/18 01:38:01;;;;;;;4.20;3.20;;;;;;;26.88;57.55;101455.20;106827;1262;25510;-49
2023/07/18 01:40:28;;;;;;;4.60;2.90;;;;;;;26.86;57.68;101458.19;107171;1264;25360;-50
2023/07/18 01:42:57;;;;;;;6.30;3.10;;;;;;;26.84;57.75;101461.02;107159;1263;25332;-49
2023/07/18 01:45:25;;;;;;;3.20;2.90;;;;;;;26.83;57.74;101461.12;106736;1271;25388;-49
2023/07/18 01:47:52;;;;;;;4.50;2.90;;;;;;;26.81;57.84;101464.98;107029;1263;25332;-51
2023/07/18 01:50:20;;;;;;;4.10;3.20;;;;;;;26.79;57.93;101458.91;106915;1267;25360;-51
2023/07/18 01:52:47;;;;;;;4.40;3.30;;;;;;;26.78;58.14;101455.45;106785;1253;22549;-51
2023/07/18 01:55:15;;;;;;;6.10;3.40;;;;;;;26.75;58.28;101453.17;106891;1259;22532;-51
2023/07/18 01:57:44;;;;;;;3.60;3.20;;;;;;;26.74;58.40;101450.27;106276;1269;22542;-51
2023/07/18 02:00:19;;;;;;;5.00;3.70;;;;;;;26.72;58.38;101450.39;106738;1267;25380;-50
2023/07/18 02:02:51;;;;;;;3.30;3.10;;;;;;;26.71;58.36;101448.33;107025;1264;25518;-51
2023/07/18 02:05:22;;;;;;;4.70;3.10;;;;;;;26.70;58.35;101446.48;106730;1262;23877;-50
2023/07/18 02:07:49;;;;;;;7.20;3.30;;;;;;;26.68;58.48;101448.40;106646;1262;22546;-50
2023/07/18 02:10:20;;;;;;;4.50;3.40;;;;;;;26.66;58.48;101446.74;106793;1257;22753;-51
2023/07/18 02:12:49;;;;;;;5.10;3.20;;;;;;;26.65;58.43;101445.45;106837;1268;22523;-50
2023/07/18 02:15:17;;;;;;;3.70;2.80;;;;;;;26.63;58.42;101444.17;106537;1258;24202;-51
2023/07/18 02:17:45;;;;;;;5.10;3.30;;;;;;;26.62;58.53;101447.61;106962;1254;25220;-51
2023/07/18 02:20:13;;;;;;;3.30;2.80;;;;;;;26.60;58.63;101441.66;107130;1253;22522;-50
2023/07/18 02:22:42;;;;;;;3.30;3.00;;;;;;;26.59;58.51;101443.20;106919;1267;25403;-50
2023/07/18 02:25:09;;;;;;;5.20;3.10;;;;;;;26.58;58.58;101441.66;106913;1256;23875;-50
2023/07/18 02:27:39;;;;;;;4.60;2.90;;;;;;;26.58;58.44;101441.88;107124;1257;25312;-50
2023/07/18 02:30:12;;;;;;;2.90;2.70;;;;;;;26.58;58.55;101441.02;106918;1259;24300;-51
2023/07/18 02:32:41;;;;;;;5.10;2.90;;;;;;;26.58;58.72;101443.84;107082;1265;22538;-51
2023/07/18 02:35:09;;;;;;;4.30;3.00;;;;;;;26.58;58.67;101444.92;107141;1264;22669;-51
2023/07/18 02:37:37;;;;;;;4.40;3.00;;;;;;;26.57;58.70;101444.77;106801;1258;25332;-50
2023/07/18 02:40:09;;;;;;;3.50;3.20;;;;;;;26.58;58.69;101446.16;107102;1253;25349;-50
2023/07/18 02:42:38;;;;;;;4.50;3.10;;;;;;;26.58;58.74;101446.10;107126;1259;25338;-50
2023/07/18 02:45:08;;;;;;;2.80;2.60;;;;;;;26.58;58.82;101443.80;107037;1252;22601;-50
2023/07/18 02:47:35;;;;;;;5.60;3.90;;;;;;;26.58;58.74;101441.46;106918;1257;25463;-50
2023/07/18 02:50:02;;;;;;;5.30;3.40;;;;;;;26.59;58.77;101440.20;106770;1255;25331;-49
2023/07/18 02:52:31;;;;;;;3.80;3.40;;;;;;;26.59;58.94;101439.48;107029;1270;22671;-49
2023/07/18 02:54:58;;;;;;;5.00;3.50;;;;;;;26.59;58.90;101439.63;107086;1264;25360;-49
2023/07/18 02:57:26;;;;;;;6.70;4.20;;;;;;;26.59;58.99;101436.08;107077;1257;25426;-50
2023/07/18 02:59:53;;;;;;;6.00;3.80;;;;;;;26.59;58.97;101434.83;106996;1267;25335;-50
2023/07/18 03:02:20;;;;;;;6.30;3.80;;;;;;;26.59;59.18;101431.46;106778;1261;25406;-49
2023/07/18 03:04:48;;;;;;;6.10;3.80;;;;;;;26.58;59.45;101430.27;106809;1268;25400;-49
2023/07/18 03:07:17;;;;;;;4.40;3.20;;;;;;;26.58;59.67;101429.27;107074;1270;25412;-49
2023/07/18 03:09:44;;;;;;;4.00;3.60;;;;;;;26.57;59.91;101426.10;107109;1262;25230;-51
2023/07/18 03:12:13;;;;;;;4.50;3.60;;;;;;;26.56;60.09;101426.86;106855;1257;25377;-50
2023/07/18 03:14:41;;;;;;;3.50;3.00;;;;;;;26.55;60.23;101427.30;107199;1263;25350;-49
2023/07/18 03:17:13;;;;;;;4.90;3.40;;;;;;;26.56;60.27;101424.77;106903;1262;24349;-50
2023/07/18 03:19:40;;;;;;;4.00;3.40;;;;;;;26.56;60.43;101430.09;107046;1263;25332;-50
2023/07/18 03:22:07;;;;;;;4.60;3.50;;;;;;;26.57;60.61;101429.14;106987;1260;25335;-50
2023/07/18 03:24:35;;;;;;;6.20;3.30;;;;;;;26.58;60.80;101427.30;107135;1264;25344;-49
2023/07/18 03:27:03;;;;;;;4.90;3.40;;;;;;;26.58;60.82;101421.38;107166;1265;25343;-50
2023/07/18 03:29:31;;;;;;;4.10;3.10;;;;;;;26.59;61.00;101424.86;107109;1263;25434;-49
2023/07/18 03:32:01;;;;;;;6.80;3.10;;;;;;;26.59;61.07;101426.25;106900;1264;25453;-49
2023/07/18 03:34:28;;;;;;;5.50;3.40;;;;;;;26.61;61.17;101426.52;107085;1264;25367;-50
2023/07/18 03:36:55;;;;;;;3.50;3.20;;;;;;;26.62;61.33;101421.99;107020;1264;25325;-50
2023/07/18 03:39:22;;;;;;;3.30;2.90;;;;;;;26.66;61.50;101420.63;107114;1266;25332;-51
2023/07/18 03:41:50;;;;;;;5.10;3.10;;;;;;;26.73;61.72;101417.36;107138;1262;25360;-49
2023/07/18 03:44:17;;;;;;;4.60;3.30;;;;;;;26.89;61.62;101414.71;106876;1267;23170;-50
2023/07/18 03:46:44;;;;;;;7.90;3.20;;;;;;;27.06;61.00;101412.92;107054;1262;22531;-50
2023/07/18 03:49:11;;;;;;;3.00;2.70;;;;;;;27.26;60.80;101414.65;106803;1274;25348;-50
2023/07/18 03:51:39;;;;;;;3.20;2.90;;;;;;;27.55;60.65;101413.10;107073;1264;25399;-50
2023/07/18 03:54:06;;;;;;;6.60;3.40;;;;;;;27.94;60.30;101412.77;107073;1254;25340;-49
2023/07/18 03:56:35;;;;;;;4.80;3.00;;;;;;;28.45;59.40;101409.52;107049;1263;25312;-50
2023/07/18 03:59:01;;;;;;;4.00;2.80;;;;;;;29.03;58.19;101412.29;107089;1264;25363;-50
2023/07/18 04:01:29;;;;;;;4.40;2.90;;;;;;;29.63;56.26;101413.10;107086;1264;25485;-50
2023/07/18 04:03:56;;;;;;;3.80;2.90;;;;;;;30.11;54.47;101414.12;107117;1257;25453;-50
2023/07/18 04:06:23;;;;;;;2.60;2.40;;;;;;;30.42;53.37;101410.09;106838;1269;22524;-50
2023/07/18 04:08:50;;;;;;;3.50;2.50;;;;;;;30.61;52.55;101408.33;107178;1265;25340;-49
2023/07/18 04:11:17;;;;;;;3.30;2.80;;;;;;;30.67;52.15;101410.46;106793;1268;25327;-49
2023/07/18 04:13:46;;;;;;;3.60;2.40;;;;;;;30.61;51.66;101411.89;106859;1269;25324;-50
2023/07/18 04:16:13;;;;;;;2.70;2.40;;;;;;;30.47;51.76;101415.23;106879;1265;25480;-50
2023/07/18 04:18:41;;;;;;;3.60;2.40;;;;;;;30.28;52.00;101417.94;107079;1265;25332;-50
2023/07/18 04:21:09;;;;;;;4.50;2.60;;;;;;;30.06;52.38;101418.00;107184;1251;23340;-50
2023/07/18 04:23:35;;;;;;;2.90;2.70;;;;;;;29.86;53.00;101417.59;107025;1265;22531;-51
2023/07/18 04:26:03;;;;;;;4.70;2.40;;;;;;;29.65;53.45;101416.98;106902;1267;25408;-49
2023/07/18 04:28:33;;;;;;;4.00;2.60;;;;;;;29.46;54.03;101421.45;106849;1267;23858;-49
2023/07/18 04:31:01;;;;;;;5.80;2.60;;;;;;;29.28;54.33;101423.81;107186;1270;25353;-50
2023/07/18 04:33:36;;;;;;;3.50;2.30;;;;;;;29.13;54.84;101423.58;107087;1262;26098;-50
2023/07/18 04:36:04;;;;;;;3.00;2.70;;;;;;;28.99;55.29;101423.70;107049;1256;22525;-50
2023/07/18 04:38:33;;;;;;;3.20;2.70;;;;;;;28.87;55.62;101415.58;106652;1271;25321;-50
2023/07/18 04:41:02;;;;;;;3.20;2.80;;;;;;;28.78;55.95;101415.17;106889;1262;25384;-49
2023/07/18 04:43:30;;;;;;;4.60;2.60;;;;;;;28.70;56.25;101416.25;107044;1252;22489;-50
2023/07/18 04:45:57;;;;;;;3.20;2.50;;;;;;;28.64;56.47;101418.79;107156;1259;25360;-50
2023/07/18 04:48:25;;;;;;;2.60;2.40;;;;;;;28.58;56.76;101415.66;107098;1263;25412;-49
2023/07/18 04:50:59;;;;;;;3.10;2.70;;;;;;;28.54;57.01;101412.96;107111;1268;25341;-50
2023/07/18 04:53:27;;;;;;;3.50;2.70;;;;;;;28.50;57.06;101414.94;107127;1264;25322;-50
2023/07/18 04:55:56;;;;;;;4.70;3.10;;;;;;;28.47;57.17;101422.02;107103;1264;25364;-49
2023/07/18 04:58:27;;;;;;;2.50;2.30;;;;;;;28.46;57.33;101423.66;107089;1254;25343;-50
2023/07/18 05:00:55;;;;;;;4.40;2.70;;;;;;;28.47;57.50;101423.45;107043;1265;25447;-50
2023/07/18 05:03:23;;;;;;;3.20;2.80;;;;;;;28.48;57.56;101421.16;107101;1269;22531;-50
2023/07/18 05:05:50;;;;;;;2.70;2.50;;;;;;;28.51;57.38;101422.20;107114;1256;25350;-51
2023/07/18 05:08:17;;;;;;;3.50;2.60;;;;;;;28.53;57.48;101418.95;106842;1274;25482;-51
2023/07/18 05:10:45;;;;;;;2.90;2.40;;;;;;;28.57;57.42;101423.62;106965;1271;25396;-50
2023/07/18 05:13:12;;;;;;;5.10;2.70;;;;;;;28.62;57.28;101421.23;106425;1271;25485;-50
2023/07/18 05:15:44;;;;;;;2.80;2.50;;;;;;;28.70;57.00;101421.05;106649;1271;25360;-50
2023/07/18 05:18:11;;;;;;;4.20;2.70;;;;;;;28.78;56.86;101417.13;107125;1266;25399;-53
2023/07/18 05:20:38;;;;;;;3.60;2.90;;;;;;;28.85;56.50;101411.91;106800;1275;25335;-52
2023/07/18 05:23:05;;;;;;;3.80;2.80;;;;;;;28.89;56.15;101408.64;107147;1262;25324;-51
2023/07/18 05:25:34;;;;;;;2.90;2.50;;;;;;;28.92;55.99;101407.16;107135;1262;22631;-50
2023/07/18 05:28:04;;;;;;;3.10;2.60;;;;;;;28.92;55.87;101405.52;107017;1262;22584;-50
2023/07/18 05:30:32;;;;;;;5.00;2.70;;;;;;;28.90;55.76;101399.27;107204;1256;25445;-49
2023/07/18 05:32:59;;;;;;;3.20;2.90;;;;;;;28.88;55.60;101400.48;106774;1269;25332;-49
2023/07/18 05:35:27;;;;;;;4.50;2.80;;;;;;;28.86;55.61;101399.13;107150;1264;22526;-49
2023/07/18 05:37:54;;;;;;;3.60;2.60;;;;;;;28.83;55.59;101398.64;107145;1265;25277;-49
2023/07/18 05:40:21;;;;;;;5.20;2.80;;;;;;;28.81;55.71;101396.52;107095;1263;25360;-49
2023/07/18 05:42:49;;;;;;;2.90;2.60;;;;;;;28.82;55.70;101400.70;107146;1265;25350;-49
2023/07/18 05:45:16;;;;;;;3.50;3.00;;;;;;;28.84;55.74;101397.34;107075;1256;25335;-50
2023/07/18 05:47:44;;;;;;;2.90;2.40;;;;;;;28.88;55.89;101396.63;107119;1266;25349;-50
2023/07/18 05:50:11;;;;;;;4.20;2.50;;;;;;;28.93;55.38;101396.30;107069;1267;25351;-49
2023/07/18 05:52:38;;;;;;;2.90;2.60;;;;;;;28.99;55.39;101393.85;107180;1265;25405;-49
2023/07/18 05:55:07;;;;;;;5.90;2.70;;;;;;;29.06;55.42;101393.98;107081;1266;25325;-49
2023/07/18 05:57:34;;;;;;;6.70;3.10;;;;;;;29.18;55.16;101390.59;106866;1259;24343;-51
2023/07/18 06:00:06;;;;;;;2.40;2.20;;;;;;;29.37;54.71;101394.00;106917;1268;25412;-50
2023/07/18 06:02:38;;;;;;;4.00;2.50;;;;;;;29.61;54.36;101394.07;106798;1266;25347;-51
2023/07/18 06:05:06;;;;;;;4.40;2.80;;;;;;;29.83;53.72;101396.63;107090;1253;22556;-49
2023/07/18 06:07:33;;;;;;;3.90;2.80;;;;;;;30.02;52.93;101396.39;106791;1258;25424;-49
2023/07/18 06:10:01;;;;;;;3.50;2.70;;;;;;;30.20;52.06;101396.08;107116;1266;25784;-50
2023/07/18 06:12:28;;;;;;;3.80;2.80;;;;;;;30.39;51.58;101392.91;107127;1256;25405;-49
2023/07/18 06:14:56;;;;;;;3.30;2.70;;;;;;;30.56;50.94;101392.89;107076;1255;25335;-49
2023/07/18 06:17:23;;;;;;;3.80;2.70;;;;;;;30.63;50.96;101389.00;107069;1259;25325;-49
2023/07/18 06:19:50;;;;;;;5.80;2.90;;;;;;;30.65;50.82;101393.46;106889;1267;25453;-49
2023/07/18 06:22:18;;;;;;;3.10;2.60;;;;;;;30.65;50.63;101396.16;106809;1262;25343;-49
2023/07/18 06:24:47;;;;;;;4.50;3.20;;;;;;;30.58;50.80;101390.36;106811;1259;25328;-49
2023/07/18 06:27:14;;;;;;;2.70;2.50;;;;;;;30.48;50.71;101388.41;107126;1263;24375;-49
2023/07/18 06:29:40;;;;;;;2.60;2.30;;;;;;;30.37;50.91;101387.15;107124;1269;25332;-49
2023/07/18 06:32:08;;;;;;;3.90;2.60;;;;;;;30.28;51.26;101385.88;107063;1266;25402;-50
2023/07/18 06:34:40;;;;;;;5.10;3.00;;;;;;;30.19;51.56;101388.70;106798;1269;25360;-49
2023/07/18 06:37:08;;;;;;;5.60;3.30;;;;;;;30.10;51.62;101386.63;107111;1256;25485;-49
2023/07/18 06:39:38;;;;;;;3.00;2.50;;;;;;;30.02;51.79;101382.20;107059;1255;25150;-49
2023/07/18 06:42:08;;;;;;;4.80;2.80;;;;;;;29.94;52.03;101382.84;106786;1262;25476;-49
2023/07/18 06:44:35;;;;;;;4.10;2.80;;;;;;;29.86;52.20;101386.83;106893;1269;22524;-50
2023/07/18 06:47:02;;;;;;;3.10;2.60;;;;;;;29.79;52.10;101389.11;107062;1265;25469;-49
2023/07/18 06:49:31;;;;;;;5.00;2.80;;;;;;;29.74;52.17;101388.48;107210;1265;25482;-49
2023/07/18 06:51:58;;;;;;;3.50;2.90;;;;;;;29.70;52.15;101392.51;106827;1267;25360;-50
2023/07/18 06:54:25;;;;;;;3.70;2.80;;;;;;;29.67;52.09;101393.00;107169;1252;25383;-50
2023/07/18 06:56:52;;;;;;;3.90;2.60;;;;;;;29.65;51.94;101391.39;106880;1274;25451;-49
2023/07/18 06:59:21;;;;;;;4.80;3.10;;;;;;;29.64;51.95;101387.27;107195;1254;25412;-49
2023/07/18 07:01:48;;;;;;;4.00;2.50;;;;;;;29.60;52.00;101388.41;107219;1265;25361;-49
2023/07/18 07:04:17;;;;;;;3.60;2.50;;;;;;;29.57;51.90;101393.24;107077;1254;25340;-50
2023/07/18 07:06:44;;;;;;;2.90;2.70;;;;;;;29.51;51.75;101400.59;107202;1257;25350;-49
2023/07/18 07:09:14;;;;;;;3.70;3.00;;;;;;;29.44;51.46;101415.38;107013;1263;25482;-49
2023/07/18 07:11:42;;;;;;;4.60;3.00;;;;;;;29.35;51.64;101419.76;107141;1259;25681;-49
2023/07/18 07:14:11;;;;;;;4.00;3.10;;;;;;;29.27;51.50;101429.56;106883;1269;25383;-50
2023/07/18 07:16:38;;;;;;;3.30;2.70;;;;;;;29.19;51.71;101434.25;107048;1256;22529;-49
2023/07/18 07:19:05;;;;;;;4.70;3.00;;;;;;;29.12;51.55;101436.10;107112;1265;25412;-49
2023/07/18 07:21:32;;;;;;;3.10;2.70;;;;;;;29.14;51.32;101438.08;107113;1265;25363;-50
2023/07/18 07:23:59;;;;;;;4.00;2.80;;;;;;;29.12;51.38;101439.90;107093;1265;22643;-50
2023/07/18 07:26:26;;;;;;;4.80;3.00;;;;;;;29.10;51.64;101440.80;106873;1265;25363;-49
2023/07/18 07:28:53;;;;;;;5.40;2.90;;;;;;;29.07;51.67;101442.09;106967;1259;25360;-49
2023/07/18 07:31:20;;;;;;;4.90;2.50;;;;;;;29.06;51.51;101449.90;106901;1269;25333;-49
2023/07/18 07:33:48;;;;;;;3.80;3.00;;;;;;;29.04;51.53;101453.81;107166;1260;25333;-51
2023/07/18 07:36:15;;;;;;;3.70;3.10;;;;;;;29.02;51.90;101457.58;107098;1265;25485;-50
2023/07/18 07:38:42;;;;;;;5.10;3.00;;;;;;;28.99;52.04;101457.27;107029;1263;24201;-50
2023/07/18 07:41:09;;;;;;;4.50;3.30;;;;;;;28.97;52.29;101457.21;107118;1272;25366;-50
2023/07/18 07:43:36;;;;;;;3.00;2.70;;;;;;;28.96;52.66;101452.81;107044;1267;25376;-50
2023/07/18 07:46:04;;;;;;;6.80;2.80;;;;;;;28.97;52.87;101454.88;107218;1265;25356;-49
2023/07/18 07:48:32;;;;;;;4.90;3.00;;;;;;;28.98;52.92;101455.18;107064;1267;22529;-50
2023/07/18 07:51:03;;;;;;;6.30;3.30;;;;;;;29.01;52.83;101459.30;107201;1259;25322;-50
2023/07/18 07:53:30;;;;;;;4.20;2.80;;;;;;;29.02;52.76;101461.66;107046;1265;25423;-50
2023/07/18 07:55:57;;;;;;;5.30;3.00;;;;;;;29.05;52.77;101462.50;106848;1259;358673;-49
2023/07/18 07:58:24;;;;;;;5.60;3.90;;;;;;;29.08;52.83;101463.51;107133;1260;22634;-50
2023/07/18 08:00:53;;;;;;;6.60;4.30;;;;;;;29.12;52.54;101465.62;107156;1257;25322;-50
2023/07/18 08:03:20;;;;;;;7.60;4.00;;;;;;;29.16;52.58;101470.98;107132;1267;25470;-50
2023/07/18 08:05:47;;;;;;;4.50;3.40;;;;;;;29.19;51.17;101471.73;107214;1266;23235;-50
2023/07/18 08:08:17;;;;;;;7.30;3.60;;;;;;;29.23;49.37;101476.58;107017;1272;25465;-49
2023/07/18 08:10:44;;;;;;;5.00;3.80;;;;;;;29.27;47.35;101475.15;107141;1260;25481;-50
2023/07/18 08:13:14;;;;;;;6.70;3.90;;;;;;;29.31;46.64;101478.25;107066;1259;25332;-50
2023/07/18 08:15:44;;;;;;;8.20;4.70;;;;;;;29.33;47.34;101475.73;106895;1266;25332;-50
2023/07/18 08:18:11;;;;;;;6.20;4.20;;;;;;;29.34;48.38;101473.30;106835;1272;25346;-50
2023/07/18 08:20:38;;;;;;;10.30;5.00;;;;;;;29.33;49.12;101466.08;107131;1255;25440;-49
2023/07/18 08:23:06;;;;;;;7.70;4.60;;;;;;;29.30;49.84;101459.17;106995;1257;25394;-49
2023/07/18 08:25:33;;;;;;;9.90;5.20;;;;;;;29.26;50.74;101457.90;107041;1266;25367;-50
2023/07/18 08:28:00;;;;;;;8.60;4.90;;;;;;;29.21;51.03;101451.56;106884;1274;25321;-50
2023/07/18 08:30:27;;;;;;;5.90;4.60;;;;;;;29.16;51.73;101446.29;107110;1265;25312;-49
2023/07/18 08:32:54;;;;;;;7.30;4.70;;;;;;;29.12;51.96;101442.04;107116;1265;25644;-50
2023/07/18 08:35:22;;;;;;;6.40;5.20;;;;;;;29.07;52.17;101434.58;107077;1263;24061;-49
2023/07/18 08:37:50;;;;;;;5.50;4.90;;;;;;;29.05;52.50;101431.19;107068;1263;25465;-49
2023/07/18 08:40:17;;;;;;;5.90;4.50;;;;;;;29.04;53.03;101427.73;107120;1256;23853;-49
2023/07/18 08:42:44;;;;;;;4.40;4.00;;;;;;;29.04;52.49;101421.89;107124;1265;25478;-49
2023/07/18 08:45:13;;;;;;;6.10;4.40;;;;;;;29.04;52.12;101417.96;107099;1269;25357;-49
2023/07/18 08:47:43;;;;;;;5.30;4.40;;;;;;;29.06;51.12;101411.64;106988;1265;25347;-49
2023/07/18 08:50:11;;;;;;;9.70;4.90;;;;;;;29.09;50.81;101411.93;107159;1259;22536;-49
2023/07/18 08:52:38;;;;;;;6.30;4.20;;;;;;;29.13;50.06;101407.84;107062;1261;25323;-51
2023/07/18 08:55:06;;;;;;;7.00;4.80;;;;;;;29.17;49.57;101405.72;106659;1268;25350;-49
2023/07/18 08:57:33;;;;;;;4.30;3.90;;;;;;;29.19;49.05;101403.93;106572;1259;24348;-50
2023/07/18 09:00:04;;;;;;;6.30;4.00;;;;;;;29.20;48.81;101403.99;106850;1266;25343;-52
2023/07/18 09:02:32;;;;;;;6.10;4.10;;;;;;;29.21;48.15;101404.07;106857;1272;22523;-54
2023/07/18 09:04:59;;;;;;;6.20;4.10;;;;;;;29.20;48.48;101401.14;107094;1265;24206;-52
2023/07/18 09:07:27;;;;;;;5.40;4.00;;;;;;;29.17;49.96;101394.05;107021;1256;25409;-50
2023/07/18 09:09:55;;;;;;;4.90;3.20;;;;;;;29.13;50.94;101395.26;106871;1267;25362;-50
2023/07/18 09:12:22;;;;;;;4.60;3.40;;;;;;;29.10;52.06;101394.34;107129;1269;25360;-51
2023/07/18 09:14:57;;;;;;;8.30;3.20;;;;;;;29.07;53.17;101392.64;107163;1266;25341;-50
2023/07/18 09:17:24;;;;;;;8.50;3.50;;;;;;;29.07;53.85;101395.27;106800;1256;25398;-49
2023/07/18 09:19:52;;;;;;;6.00;3.10;;;;;;;29.10;54.49;101391.61;107161;1256;25339;-50
2023/07/18 09:22:19;;;;;;;3.60;3.10;;;;;;;29.16;54.86;101391.27;107182;1256;25408;-50
2023/07/18 09:24:46;;;;;;;4.10;2.90;;;;;;;29.24;55.01;101388.23;107272;1264;25326;-50
2023/07/18 09:27:17;;;;;;;4.80;2.80;;;;;;;29.32;55.24;101376.98;107062;1264;22553;-49
2023/07/18 09:29:45;;;;;;;6.20;3.00;;;;;;;29.42;55.09;101378.52;106898;1266;25479;-49
2023/07/18 09:32:19;;;;;;;3.10;2.80;;;;;;;29.53;55.21;101379.90;106867;1260;22546;-49
2023/07/18 09:35:01;;;;;;;3.90;3.10;;;;;;;29.62;55.10;101372.25;107103;1262;25340;-49
2023/07/18 09:37:29;;;;;;;3.90;2.80;;;;;;;29.72;54.98;101374.52;107093;1266;25349;-49
2023/07/18 09:39:56;;;;;;;2.80;2.60;;;;;;;29.83;55.18;101367.75;107181;1259;25357;-49
2023/07/18 09:42:24;;;;;;;3.90;3.00;;;;;;;29.93;54.51;101366.85;106956;1256;25382;-50
2023/07/18 09:44:51;;;;;;;5.70;3.30;;;;;;;30.02;54.59;101359.35;107097;1259;25311;-49
2023/07/18 09:47:20;;;;;;;3.10;2.80;;;;;;;30.11;54.41;101359.55;106776;1267;25426;-49
2023/07/18 09:49:47;;;;;;;5.00;3.30;;;;;;;30.21;53.90;101354.68;106847;1267;25322;-49
2023/07/18 09:52:15;;;;;;;3.90;2.90;;;;;;;30.28;53.64;101348.80;106984;1267;25482;-50
2023/07/18 09:54:43;;;;;;;3.90;2.60;;;;;;;30.35;53.48;101342.58;106764;1257;22794;-50
2023/07/18 09:57:10;;;;;;;4.30;2.80;;;;;;;30.41;53.19;101338.39;106717;1269;24057;-49
2023/07/18 09:59:38;;;;;;;4.30;3.00;;;;;;;30.48;53.11;101343.33;106753;1270;25325;-49
2023/07/18 10:02:08;;;;;;;4.20;3.10;;;;;;;30.53;52.87;101335.11;106900;1270;22600;-49
2023/07/18 10:04:36;;;;;;;3.50;3.00;;;;;;;30.59;52.53;101331.86;107081;1265;22644;-49
2023/07/18 10:07:04;;;;;;;5.30;2.90;;;;;;;30.65;52.42;101329.11;107174;1263;24225;-49
2023/07/18 10:09:31;;;;;;;3.20;2.60;;;;;;;30.71;52.39;101328.76;107116;1257;25343;-49
2023/07/18 10:11:59;;;;;;;4.20;2.80;;;;;;;30.77;52.05;101324.88;107125;1261;22528;-49
2023/07/18 10:14:47;;;;;;;4.00;3.20;;;;;;;30.82;51.73;101324.77;107226;1266;25312;-50
2023/07/18 10:17:34;;;;;;;3.80;3.00;;;;;;;30.85;50.98;101321.45;107107;1260;24351;-49
2023/07/18 10:20:06;;;;;;;4.80;3.30;;;;;;;30.84;50.24;101322.10;107160;1266;22526;-49
2023/07/18 10:22:33;;;;;;;7.30;3.40;;;;;;;30.80;50.06;101315.64;107029;1263;24343;-49
2023/07/18 10:25:08;;;;;;;6.00;3.50;;;;;;;30.78;49.87;101308.59;107123;1269;23421;-48
2023/07/18 10:27:42;;;;;;;5.40;3.50;;;;;;;30.74;49.19;101307.11;107221;1262;22750;-50
2023/07/18 10:30:11;;;;;;;8.60;4.40;;;;;;;30.71;48.66;101301.02;106895;1267;23292;-49
2023/07/18 10:32:38;;;;;;;8.40;4.00;;;;;;;30.67;47.81;101298.16;107062;1256;24195;-49
2023/07/18 10:35:07;;;;;;;5.10;3.80;;;;;;;30.63;46.88;101297.19;107107;1270;22543;-49
2023/07/18 10:37:36;;;;;;;4.30;3.70;;;;;;;30.59;46.07;101298.98;106900;1269;22523;-49
2023/07/18 10:40:05;;;;;;;10.50;4.00;;;;;;;30.53;46.11;101300.70;107613;1263;24203;-49
2023/07/18 10:42:34;;;;;;;4.20;3.70;;;;;;;30.47;45.81;101298.95;107279;1256;22527;-49
2023/07/18 10:45:06;;;;;;;5.60;4.10;;;;;;;30.40;45.22;101299.03;107074;1266;25347;-50
2023/07/18 10:47:36;;;;;;;4.50;4.10;;;;;;;30.31;45.19;101295.20;107415;1271;24260;-50
2023/07/18 10:50:04;;;;;;;5.70;4.50;;;;;;;30.25;45.21;101292.52;107194;1256;22998;-49
2023/07/18 10:52:32;;;;;;;5.90;3.70;;;;;;;30.18;45.14;101288.51;107434;1260;22524;-49
2023/07/18 10:55:00;;;;;;;11.80;4.10;;;;;;;30.10;45.37;101285.73;107267;1256;22573;-49
2023/07/18 10:57:29;;;;;;;4.10;3.70;;;;;;;30.08;45.16;101283.06;107372;1259;25349;-49
2023/07/18 10:59:58;;;;;;;4.60;3.80;;;;;;;30.07;45.11;101283.04;107094;1258;25249;-49
2023/07/18 11:02:26;;;;;;;5.50;4.00;;;;;;;30.05;45.36;101287.81;107233;1267;25409;-49
2023/07/18 11:04:53;;;;;;;4.50;3.60;;;;;;;30.04;45.40;101282.60;107105;1263;25360;-50
2023/07/18 11:07:35;;;;;;;4.70;3.90;;;;;;;30.03;45.44;101281.40;107205;1264;22532;-49
2023/07/18 11:10:03;;;;;;;6.00;3.90;;;;;;;30.04;45.77;101282.42;107133;1253;24183;-49
2023/07/18 11:12:31;;;;;;;4.50;3.40;;;;;;;30.04;45.86;101277.17;107114;1267;25333;-49
2023/07/18 11:14:58;;;;;;;5.40;3.60;;;;;;;30.05;46.05;101274.64;107117;1265;25321;-49
2023/07/18 11:17:27;;;;;;;9.60;3.60;;;;;;;30.05;46.20;101272.47;107096;1262;23467;-49
2023/07/18 11:19:56;;;;;;;5.40;3.60;;;;;;;30.06;46.40;101270.95;106888;1271;25317;-49
2023/07/18 11:22:24;;;;;;;4.40;3.30;;;;;;;30.07;46.53;101267.47;107061;1271;25453;-49